createdAt,value
2023-12-28T00:02:23.844Z,77.17
2023-12-28T00:04:50.468Z,76.02
2023-12-28T00:07:17.333Z,75.80
2023-12-28T00:09:43.987Z,76.40
2023-12-28T00:12:10.932Z,77.34
2023-12-28T00:14:37.892Z,76.33
2023-12-28T00:17:05.826Z,76.09
2023-12-28T00:19:34.905Z,75.94
2023-12-28T00:22:01.776Z,74.29
2023-12-28T00:24:28.516Z,74.50
2023-12-28T00:26:55.163Z,74.22
2023-12-28T00:29:22.431Z,73.17
2023-12-28T00:31:49.992Z,75.15
2023-12-28T00:34:16.669Z,73.39
2023-12-28T00:36:43.489Z,73.31
2023-12-28T00:39:10.900Z,73.11
2023-12-28T00:41:37.501Z,72.53
2023-12-28T00:44:04.556Z,73.92
2023-12-28T00:46:31.111Z,73.45
2023-12-28T00:48:57.831Z,72.35
2023-12-28T00:51:24.794Z,73.39
2023-12-28T00:53:51.792Z,73.11
2023-12-28T00:56:18.645Z,72.30
2023-12-28T00:58:45.439Z,72.16
2023-12-28T01:01:12.789Z,72.42
2023-12-28T01:03:39.694Z,72.38
2023-12-28T01:06:06.937Z,71.74
2023-12-28T01:08:35.367Z,72.50
2023-12-28T01:11:03.105Z,71.80
2023-12-28T01:13:30.473Z,71.92
2023-12-28T01:15:57.319Z,73.13
2023-12-28T01:18:24.376Z,72.50
2023-12-28T01:20:51.501Z,71.32
2023-12-28T01:23:18.263Z,72.39
2023-12-28T01:25:45.258Z,71.58
2023-12-28T01:28:12.113Z,71.62
2023-12-28T01:30:38.833Z,72.23
2023-12-28T01:33:05.997Z,73.70
2023-12-28T01:35:32.895Z,73.47
2023-12-28T01:38:01.561Z,76.14
2023-12-28T01:40:28.568Z,77.17
2023-12-28T01:42:55.279Z,79.89
2023-12-28T01:45:22.609Z,79.96
2023-12-28T01:47:49.978Z,81.04
2023-12-28T01:50:17.137Z,81.71
2023-12-28T01:52:44.630Z,82.21
2023-12-28T01:55:11.837Z,83.19
2023-12-28T01:57:39.464Z,83.69
2023-12-28T02:00:07.144Z,85.07
2023-12-28T02:02:38.926Z,86.07
2023-12-28T02:05:06.035Z,87.04
2023-12-28T02:07:33.815Z,87.79
2023-12-28T02:10:00.710Z,87.44
2023-12-28T02:12:27.768Z,87.90
2023-12-28T02:14:54.409Z,88.37
2023-12-28T02:17:32.231Z,87.71
2023-12-28T02:19:59.754Z,87.62
2023-12-28T02:22:27.938Z,86.80
2023-12-28T02:25:10.243Z,87.29
2023-12-28T02:27:39.878Z,87.48
2023-12-28T02:30:08.766Z,86.53
2023-12-28T02:32:58.337Z,87.47
2023-12-28T02:35:32.845Z,87.24
2023-12-28T02:38:06.730Z,87.83
2023-12-28T02:40:38.611Z,87.16
2023-12-28T02:43:08.987Z,87.72
2023-12-28T02:45:36.447Z,88.08
2023-12-28T02:48:04.488Z,86.67
2023-12-28T02:50:32.484Z,87.05
2023-12-28T02:52:59.704Z,86.76
2023-12-28T02:55:26.711Z,86.27
2023-12-28T02:57:57.378Z,86.25
2023-12-28T03:00:24.274Z,86.76
2023-12-28T03:02:51.309Z,87.36
2023-12-28T03:05:19.235Z,87.57
2023-12-28T03:07:47.074Z,88.13
2023-12-28T03:10:14.856Z,87.17
2023-12-28T03:12:42.519Z,87.88
2023-12-28T03:15:09.773Z,88.57
2023-12-28T03:17:38.713Z,89.05
2023-12-28T03:20:06.206Z,89.17
2023-12-28T03:22:33.003Z,88.91
2023-12-28T03:25:00.442Z,89.89
2023-12-28T03:27:27.344Z,90.54
2023-12-28T03:29:53.958Z,90.83
2023-12-28T03:32:20.816Z,91.27
2023-12-28T03:34:47.549Z,91.26
2023-12-28T03:37:14.434Z,91.60
2023-12-28T03:39:41.755Z,92.24
2023-12-28T03:42:08.637Z,92.43
2023-12-28T03:44:35.879Z,92.88
2023-12-28T03:47:02.729Z,92.90
2023-12-28T03:49:29.764Z,93.48
2023-12-28T03:51:56.955Z,94.06
2023-12-28T03:54:23.673Z,93.72
2023-12-28T03:56:50.740Z,93.85
2023-12-28T03:59:17.408Z,94.36
2023-12-28T04:01:44.614Z,94.88
2023-12-28T04:04:11.823Z,94.97
2023-12-28T04:06:40.062Z,95.22
2023-12-28T04:09:07.116Z,95.13
2023-12-28T04:11:33.834Z,95.50
2023-12-28T04:14:00.497Z,95.27
2023-12-28T04:16:27.401Z,95.23
2023-12-28T04:18:54.345Z,94.97
2023-12-28T04:21:21.537Z,95.08
2023-12-28T04:23:48.425Z,95.66
2023-12-28T04:26:15.686Z,94.63
2023-12-28T04:28:42.266Z,95.35
2023-12-28T04:31:09.730Z,95.19
2023-12-28T04:33:36.472Z,94.87
2023-12-28T04:36:07.402Z,94.38
2023-12-28T04:38:35.076Z,94.67
2023-12-28T04:41:02.376Z,95.09
2023-12-28T04:43:29.383Z,94.42
2023-12-28T04:45:56.281Z,95.32
2023-12-28T04:48:25.593Z,94.99
2023-12-28T04:50:54.217Z,95.07
2023-12-28T04:53:21.277Z,95.26
2023-12-28T04:55:48.195Z,94.90
2023-12-28T04:58:15.928Z,94.62
2023-12-28T05:00:42.656Z,94.12
2023-12-28T05:03:09.469Z,93.76
2023-12-28T05:05:36.157Z,94.41
2023-12-28T05:08:03.335Z,94.25
2023-12-28T05:10:30.150Z,93.98
2023-12-28T05:15:26.659Z,94.10
2023-12-28T05:17:53.947Z,94.05
2023-12-28T05:20:20.803Z,93.96
2023-12-28T05:22:48.066Z,93.54
2023-12-28T05:25:14.682Z,93.21
2023-12-28T05:27:44.231Z,94.20
2023-12-28T05:30:13.094Z,92.92
2023-12-28T05:32:40.284Z,93.82
2023-12-28T05:35:07.486Z,93.25
2023-12-28T05:37:34.370Z,93.27
2023-12-28T05:40:01.722Z,93.07
2023-12-28T05:42:28.586Z,93.20
2023-12-28T05:44:55.749Z,93.13
2023-12-28T05:47:22.641Z,92.82
2023-12-28T05:49:49.942Z,91.87
2023-12-28T05:52:19.753Z,92.51
2023-12-28T05:54:47.175Z,91.43
2023-12-28T05:57:13.926Z,91.10
2023-12-28T05:59:44.193Z,91.46
2023-12-28T06:02:10.844Z,90.86
2023-12-28T06:04:38.551Z,90.56
2023-12-28T06:07:06.377Z,90.46
2023-12-28T06:09:33.880Z,90.33
2023-12-28T06:12:01.455Z,90.71
2023-12-28T06:14:28.263Z,90.89
2023-12-28T06:16:55.389Z,90.81
2023-12-28T06:19:22.919Z,90.62
2023-12-28T06:21:50.044Z,91.16
2023-12-28T06:24:17.032Z,91.41
2023-12-28T06:26:44.708Z,92.23
2023-12-28T06:29:11.920Z,91.43
2023-12-28T06:31:39.272Z,91.47
2023-12-28T06:34:07.803Z,91.85
2023-12-28T06:36:34.922Z,92.08
2023-12-28T06:39:02.169Z,91.64
2023-12-28T06:41:28.953Z,91.04
2023-12-28T06:43:55.952Z,90.84
2023-12-28T06:46:22.932Z,90.35
2023-12-28T06:48:50.239Z,90.17
2023-12-28T06:51:21.557Z,90.71
2023-12-28T06:53:50.454Z,89.75
2023-12-28T06:56:18.987Z,90.03
2023-12-28T06:58:46.136Z,89.26
2023-12-28T07:01:13.959Z,89.37
2023-12-28T07:03:42.013Z,89.76
2023-12-28T07:06:10.204Z,89.36
2023-12-28T07:08:37.833Z,89.84
2023-12-28T07:11:05.582Z,89.20
2023-12-28T07:13:33.818Z,89.51
2023-12-28T07:16:01.857Z,89.15
2023-12-28T07:18:29.811Z,89.57
2023-12-28T07:20:57.206Z,89.64
2023-12-28T07:23:23.991Z,89.31
2023-12-28T07:25:50.822Z,89.55
2023-12-28T07:28:17.524Z,89.69
2023-12-28T07:30:44.548Z,90.00
2023-12-28T07:33:12.282Z,90.29
2023-12-28T07:35:39.006Z,89.98
2023-12-28T07:38:05.869Z,90.21
2023-12-28T07:40:32.428Z,90.66
2023-12-28T07:42:59.685Z,90.53
2023-12-28T07:45:26.902Z,90.53
2023-12-28T07:47:54.230Z,90.59
2023-12-28T07:50:22.011Z,89.89
2023-12-28T07:52:50.269Z,90.06
2023-12-28T07:55:17.414Z,89.18
2023-12-28T07:57:45.057Z,89.87
2023-12-28T08:00:12.297Z,89.32
2023-12-28T08:02:39.484Z,88.94
2023-12-28T08:05:07.108Z,88.40
2023-12-28T08:07:34.397Z,89.14
2023-12-28T08:10:02.215Z,89.36
2023-12-28T08:12:29.486Z,89.12
2023-12-28T08:14:57.416Z,89.67
2023-12-28T08:17:25.111Z,90.09
2023-12-28T08:19:52.440Z,88.96
2023-12-28T08:22:20.116Z,89.31
2023-12-28T08:24:47.016Z,89.12
2023-12-28T08:27:14.315Z,89.35
2023-12-28T08:29:43.037Z,88.97
2023-12-28T08:32:09.778Z,89.26
2023-12-28T08:34:36.680Z,88.78
2023-12-28T08:37:03.547Z,88.94
2023-12-28T08:39:30.368Z,89.01
2023-12-28T08:41:57.421Z,88.57
2023-12-28T08:44:24.244Z,89.06
2023-12-28T08:46:50.864Z,88.81
2023-12-28T08:49:17.793Z,88.48
2023-12-28T08:51:45.442Z,88.49
2023-12-28T08:54:12.159Z,88.13
2023-12-28T08:56:39.171Z,87.96
2023-12-28T08:59:06.136Z,87.55
2023-12-28T09:01:34.056Z,88.30
2023-12-28T09:04:01.413Z,87.50
2023-12-28T09:06:28.533Z,87.75
2023-12-28T09:08:58.219Z,87.45
2023-12-28T09:11:25.179Z,86.88
2023-12-28T09:13:52.325Z,86.62
2023-12-28T09:16:19.371Z,85.97
2023-12-28T09:18:46.804Z,85.82
2023-12-28T09:21:14.125Z,86.42
2023-12-28T09:23:42.439Z,86.52
2023-12-28T09:26:09.792Z,86.16
2023-12-28T09:28:37.053Z,86.09
2023-12-28T09:31:05.990Z,86.07
2023-12-28T09:33:32.984Z,85.78
2023-12-28T09:36:00.000Z,85.84
2023-12-28T09:38:28.390Z,85.29
2023-12-28T09:40:56.803Z,86.29
2023-12-28T09:43:31.913Z,84.51
2023-12-28T09:45:58.565Z,85.02
2023-12-28T09:48:25.550Z,84.72
2023-12-28T09:50:56.695Z,84.94
2023-12-28T09:53:27.769Z,84.13
2023-12-28T09:55:54.938Z,83.06
2023-12-28T09:58:23.511Z,82.81
2023-12-28T10:00:52.343Z,82.39
2023-12-28T10:03:21.123Z,81.47
2023-12-28T10:05:48.656Z,80.20
2023-12-28T10:08:17.317Z,79.47
2023-12-28T10:10:52.706Z,79.40
2023-12-28T10:13:19.472Z,79.03
2023-12-28T10:15:46.558Z,79.45
2023-12-28T10:18:13.834Z,78.53
2023-12-28T10:20:40.939Z,78.69
2023-12-28T10:23:08.652Z,78.44
2023-12-28T10:25:36.375Z,78.18
2023-12-28T10:28:09.993Z,78.67
2023-12-28T10:30:37.000Z,78.07
2023-12-28T10:33:07.385Z,77.77
2023-12-28T10:35:35.240Z,77.85
2023-12-28T10:38:04.888Z,77.62
2023-12-28T10:40:36.540Z,75.71
2023-12-28T10:43:07.990Z,74.36
2023-12-28T10:45:37.013Z,72.99
2023-12-28T10:48:09.074Z,72.75
2023-12-28T10:50:51.889Z,72.34
2023-12-28T10:53:37.215Z,71.84
2023-12-28T10:56:23.634Z,71.14
2023-12-28T10:58:54.316Z,70.53
2023-12-28T11:01:29.725Z,69.78
2023-12-28T11:04:05.489Z,70.38
2023-12-28T11:06:33.623Z,69.46
2023-12-28T11:09:02.520Z,68.93
2023-12-28T11:11:31.255Z,68.42
2023-12-28T11:14:01.419Z,68.06
2023-12-28T11:16:29.876Z,68.68
2023-12-28T11:18:57.912Z,68.78
2023-12-28T11:21:25.821Z,67.76
2023-12-28T11:23:53.724Z,68.78
2023-12-28T11:26:22.683Z,69.51
2023-12-28T11:28:49.531Z,70.59
2023-12-28T11:31:17.462Z,70.30
2023-12-28T11:33:49.137Z,71.39
2023-12-28T11:36:36.722Z,71.91
2023-12-28T11:39:06.621Z,72.13
2023-12-28T11:41:35.390Z,72.09
2023-12-28T11:44:06.419Z,71.15
2023-12-28T11:46:34.419Z,71.67
2023-12-28T11:49:10.193Z,71.19
2023-12-28T11:51:40.909Z,72.88
2023-12-28T11:54:08.826Z,71.70
2023-12-28T11:56:35.778Z,72.63
2023-12-28T11:59:02.448Z,71.81
2023-12-28T12:01:29.780Z,73.32
2023-12-28T12:03:56.885Z,72.96
2023-12-28T12:06:25.647Z,72.91
2023-12-28T12:08:52.511Z,73.08
2023-12-28T12:11:20.124Z,72.63
2023-12-28T12:13:48.142Z,72.77
2023-12-28T12:16:15.642Z,73.08
2023-12-28T12:18:42.798Z,72.29
2023-12-28T12:21:09.414Z,72.51
2023-12-28T12:23:38.516Z,72.38
2023-12-28T12:26:08.901Z,72.43
2023-12-28T12:28:36.617Z,72.71
2023-12-28T12:31:04.664Z,72.31
2023-12-28T12:33:32.642Z,72.03
2023-12-28T12:35:59.555Z,71.95
2023-12-28T12:38:26.244Z,71.53
2023-12-28T12:40:54.313Z,71.97
2023-12-28T12:43:21.745Z,72.19
2023-12-28T12:45:49.492Z,71.50
2023-12-28T12:48:17.058Z,71.10
2023-12-28T12:50:45.369Z,71.05
2023-12-28T12:53:15.645Z,70.91
2023-12-28T12:55:46.948Z,70.51
2023-12-28T12:58:14.582Z,70.10
2023-12-28T13:00:41.596Z,69.89
2023-12-28T13:03:11.521Z,69.90
2023-12-28T13:05:42.705Z,69.36
2023-12-28T13:08:09.849Z,69.55
2023-12-28T13:10:37.653Z,69.28
2023-12-28T13:13:08.393Z,69.02
2023-12-28T13:15:35.430Z,69.71
2023-12-28T13:18:02.395Z,68.67
2023-12-28T13:20:29.340Z,68.96
2023-12-28T13:22:55.898Z,68.96
2023-12-28T13:25:22.998Z,68.60
2023-12-28T13:27:50.120Z,68.73
2023-12-28T13:30:16.799Z,68.92
2023-12-28T13:32:43.454Z,68.57
2023-12-28T13:35:10.314Z,69.55
2023-12-28T13:37:37.186Z,68.38
2023-12-28T13:40:04.601Z,69.81
2023-12-28T13:42:31.275Z,68.60
2023-12-28T13:44:57.883Z,68.61
2023-12-28T13:47:24.822Z,68.71
2023-12-28T13:49:51.722Z,68.06
2023-12-28T13:52:18.624Z,69.07
2023-12-28T13:54:45.532Z,68.73
2023-12-28T13:57:12.611Z,69.13
2023-12-28T13:59:39.226Z,68.91
2023-12-28T14:02:06.318Z,69.38
2023-12-28T14:04:33.367Z,68.93
2023-12-28T14:07:00.521Z,69.60
2023-12-28T14:09:27.400Z,69.16
2023-12-28T14:11:55.094Z,69.48
2023-12-28T14:14:22.250Z,69.88
2023-12-28T14:16:49.362Z,68.86
2023-12-28T14:19:16.303Z,68.94
2023-12-28T14:21:47.301Z,69.65
2023-12-28T14:24:16.409Z,69.25
2023-12-28T14:26:44.477Z,70.10
2023-12-28T14:29:11.939Z,69.36
2023-12-28T14:31:39.198Z,69.46
2023-12-28T14:34:06.785Z,69.91
2023-12-28T14:36:36.360Z,70.07
2023-12-28T14:39:08.713Z,69.28
2023-12-28T14:41:36.693Z,69.14
2023-12-28T14:44:04.103Z,69.79
2023-12-28T14:46:32.372Z,69.32
2023-12-28T14:48:59.569Z,68.65
2023-12-28T14:51:26.513Z,68.55
2023-12-28T14:53:53.368Z,68.89
2023-12-28T14:56:20.018Z,69.20
2023-12-28T14:58:48.148Z,70.02
2023-12-28T15:01:17.314Z,68.93
2023-12-28T15:03:45.055Z,69.16
2023-12-28T15:06:12.417Z,68.82
2023-12-28T15:08:39.330Z,70.21
2023-12-28T15:11:09.295Z,69.28
2023-12-28T15:13:36.519Z,69.37
2023-12-28T15:16:04.606Z,68.72
2023-12-28T15:18:32.542Z,68.79
2023-12-28T15:20:59.747Z,68.55
2023-12-28T15:23:28.357Z,69.40
2023-12-28T15:25:55.720Z,68.55
2023-12-28T15:28:23.072Z,69.27
2023-12-28T15:30:49.811Z,68.77
2023-12-28T15:33:17.474Z,69.68
2023-12-28T15:35:44.865Z,68.81
2023-12-28T15:38:12.844Z,69.59
2023-12-28T15:40:39.658Z,69.58
2023-12-28T15:43:06.827Z,69.43
2023-12-28T15:45:35.739Z,69.58
2023-12-28T15:48:02.805Z,68.51
2023-12-28T15:50:29.971Z,68.79
2023-12-28T15:52:58.045Z,69.15
2023-12-28T15:55:25.142Z,68.67
2023-12-28T15:57:52.015Z,69.31
2023-12-28T16:00:20.604Z,68.69
2023-12-28T16:02:47.173Z,69.47
2023-12-28T16:05:14.371Z,68.75
2023-12-28T16:07:41.341Z,68.87
2023-12-28T16:10:08.615Z,68.59
2023-12-28T16:12:35.583Z,68.88
2023-12-28T16:15:02.954Z,69.08
2023-12-28T16:17:30.075Z,69.28
2023-12-28T16:19:57.174Z,69.18
2023-12-28T16:22:24.541Z,68.17
2023-12-28T16:24:51.167Z,68.15
2023-12-28T16:27:19.225Z,68.25
2023-12-28T16:29:46.097Z,68.58
2023-12-28T16:32:12.788Z,68.29
2023-12-28T16:34:40.015Z,69.24
2023-12-28T16:37:06.763Z,68.50
2023-12-28T16:39:33.487Z,69.42
2023-12-28T16:42:00.176Z,69.44
2023-12-28T16:44:26.980Z,69.21
2023-12-28T16:46:54.225Z,69.11
2023-12-28T16:49:21.129Z,68.90
2023-12-28T16:51:49.585Z,68.08
2023-12-28T16:54:18.852Z,68.28
2023-12-28T16:56:45.644Z,68.95
2023-12-28T16:59:12.259Z,69.35
2023-12-28T17:01:43.749Z,69.36
2023-12-28T17:04:11.940Z,69.85
2023-12-28T17:06:41.072Z,71.21
2023-12-28T17:09:10.769Z,71.83
2023-12-28T17:11:43.549Z,72.84
2023-12-28T17:14:18.622Z,72.85
2023-12-28T17:16:46.028Z,73.25
2023-12-28T17:19:14.536Z,73.56
2023-12-28T17:21:44.811Z,74.05
2023-12-28T17:24:20.027Z,74.23
2023-12-28T17:26:49.172Z,74.65
2023-12-28T17:29:20.316Z,75.26
2023-12-28T17:31:49.838Z,75.34
2023-12-28T17:34:16.798Z,76.39
2023-12-28T17:36:46.973Z,76.81
2023-12-28T17:39:14.519Z,76.92
2023-12-28T17:41:42.802Z,77.71
2023-12-28T17:44:17.626Z,77.64
2023-12-28T17:46:54.030Z,77.92
2023-12-28T17:49:30.171Z,77.29
2023-12-28T17:51:59.516Z,77.39
2023-12-28T17:54:26.972Z,77.04
2023-12-28T17:56:57.750Z,77.02
2023-12-28T17:59:29.889Z,76.64
2023-12-28T18:01:59.980Z,76.74
2023-12-28T18:04:26.826Z,76.57
2023-12-28T18:06:54.270Z,76.30
2023-12-28T18:09:23.278Z,76.37
2023-12-28T18:11:53.514Z,76.76
2023-12-28T18:14:22.206Z,76.05
2023-12-28T18:16:50.103Z,76.65
2023-12-28T18:19:16.925Z,76.66
2023-12-28T18:21:43.846Z,76.97
2023-12-28T18:24:11.392Z,77.25
2023-12-28T18:26:38.341Z,76.68
2023-12-28T18:29:05.094Z,76.30
2023-12-28T18:31:31.994Z,77.09
2023-12-28T18:33:59.073Z,76.86
2023-12-28T18:36:25.819Z,76.86
2023-12-28T18:38:52.632Z,76.72
2023-12-28T18:41:19.455Z,76.36
2023-12-28T18:43:46.513Z,76.34
2023-12-28T18:46:13.623Z,76.04
2023-12-28T18:48:40.566Z,76.43
2023-12-28T18:51:09.714Z,75.83
2023-12-28T18:53:36.924Z,76.35
2023-12-28T18:56:04.345Z,75.89
2023-12-28T18:58:31.166Z,75.62
2023-12-28T19:00:58.124Z,75.68
2023-12-28T19:03:29.597Z,75.93
2023-12-28T19:05:56.689Z,75.56
2023-12-28T19:08:23.607Z,76.27
2023-12-28T19:10:50.245Z,76.00
2023-12-28T19:13:17.203Z,75.56
2023-12-28T19:15:43.776Z,75.62
2023-12-28T19:18:11.547Z,75.41
2023-12-28T19:20:38.422Z,74.76
2023-12-28T19:23:05.202Z,75.57
2023-12-28T19:25:32.296Z,75.69
2023-12-28T19:27:59.715Z,74.90
2023-12-28T19:30:26.545Z,74.73
2023-12-28T19:32:53.571Z,74.17
2023-12-28T19:35:20.199Z,75.09
2023-12-28T19:37:47.386Z,73.71
2023-12-28T19:40:14.379Z,72.99
2023-12-28T19:42:40.928Z,72.78
2023-12-28T19:45:08.373Z,73.37
2023-12-28T19:47:35.351Z,72.82
2023-12-28T19:50:02.542Z,73.02
2023-12-28T19:52:29.549Z,72.62
2023-12-28T19:54:57.517Z,72.74
2023-12-28T19:57:24.204Z,73.56
2023-12-28T19:59:52.366Z,73.32
2023-12-28T20:02:20.905Z,73.30
2023-12-28T20:04:47.842Z,73.19
2023-12-28T20:07:15.822Z,72.19
2023-12-28T20:09:42.569Z,73.23
2023-12-28T20:12:09.444Z,73.98
2023-12-28T20:14:36.272Z,73.31
2023-12-28T20:17:04.119Z,73.42
2023-12-28T20:19:31.064Z,73.53
2023-12-28T20:21:58.325Z,73.26
2023-12-28T20:24:25.210Z,74.05
2023-12-28T20:26:51.881Z,73.55
2023-12-28T20:29:18.550Z,73.51
2023-12-28T20:31:45.410Z,73.55
2023-12-28T20:34:12.340Z,73.15
2023-12-28T20:36:39.550Z,73.05
2023-12-28T20:39:07.629Z,73.52
2023-12-28T20:41:34.315Z,74.20
2023-12-28T20:44:02.030Z,73.55
2023-12-28T20:46:30.208Z,73.99
2023-12-28T20:48:58.924Z,73.16
2023-12-28T20:51:26.812Z,73.35
2023-12-28T20:53:53.952Z,74.00
2023-12-28T20:56:20.875Z,74.02
2023-12-28T20:58:48.529Z,73.39
2023-12-28T21:01:15.651Z,73.62
2023-12-28T21:03:44.086Z,73.09
2023-12-28T21:06:10.981Z,74.25
2023-12-28T21:08:39.061Z,73.50
2023-12-28T21:11:05.785Z,73.82
2023-12-28T21:13:39.451Z,73.83
2023-12-28T21:16:10.829Z,74.49
2023-12-28T21:18:38.198Z,74.40
2023-12-28T21:21:10.925Z,74.71
2023-12-28T21:23:42.152Z,73.95
2023-12-28T21:26:09.482Z,73.86
2023-12-28T21:28:37.007Z,73.76
2023-12-28T21:31:04.297Z,73.87
2023-12-28T21:33:31.736Z,73.60
2023-12-28T21:35:58.770Z,73.85
2023-12-28T21:38:25.604Z,72.98
2023-12-28T21:40:52.210Z,73.71
2023-12-28T21:43:18.937Z,73.72
2023-12-28T21:45:51.216Z,74.25
2023-12-28T21:48:18.890Z,73.88
2023-12-28T21:50:45.636Z,74.05
2023-12-28T21:53:13.182Z,74.54
2023-12-28T21:55:46.586Z,74.61
2023-12-28T21:58:13.418Z,74.27
2023-12-28T22:00:40.858Z,74.23
2023-12-28T22:03:07.682Z,73.62
2023-12-28T22:05:35.615Z,73.35
2023-12-28T22:08:03.465Z,73.50
2023-12-28T22:10:31.900Z,74.12
2023-12-28T22:12:58.686Z,74.22
2023-12-28T22:15:25.298Z,73.19
2023-12-28T22:17:52.134Z,73.27
2023-12-28T22:20:20.682Z,73.14
2023-12-28T22:22:47.314Z,73.01
2023-12-28T22:25:14.517Z,73.07
2023-12-28T22:27:41.495Z,73.14
2023-12-28T22:30:08.411Z,73.45
2023-12-28T22:32:35.436Z,72.81
2023-12-28T22:35:02.657Z,73.24
2023-12-28T22:37:30.050Z,72.82
2023-12-28T22:39:57.164Z,73.12
2023-12-28T22:42:26.661Z,72.53
2023-12-28T22:44:54.609Z,72.85
2023-12-28T22:47:24.938Z,72.91
2023-12-28T22:49:51.872Z,72.92
2023-12-28T22:52:18.565Z,73.23
2023-12-28T22:54:45.829Z,71.98
2023-12-28T22:57:12.967Z,72.57
2023-12-28T22:59:43.943Z,72.70
2023-12-28T23:02:10.957Z,72.14
2023-12-28T23:04:46.680Z,72.09
2023-12-28T23:07:20.457Z,72.48
2023-12-28T23:09:47.374Z,72.78
2023-12-28T23:12:13.956Z,72.80
2023-12-28T23:14:40.564Z,73.34
2023-12-28T23:17:07.832Z,73.29
2023-12-28T23:19:34.721Z,73.09
2023-12-28T23:22:01.888Z,72.90
2023-12-28T23:24:28.598Z,73.50
2023-12-28T23:26:56.460Z,72.46
2023-12-28T23:29:23.043Z,72.50
2023-12-28T23:31:49.861Z,72.30
2023-12-28T23:34:25.414Z,72.87
2023-12-28T23:36:56.506Z,72.50
2023-12-28T23:39:23.163Z,72.57
2023-12-28T23:41:50.177Z,73.21
2023-12-28T23:44:18.271Z,72.65
2023-12-28T23:46:45.601Z,73.21
2023-12-28T23:49:12.619Z,72.75
2023-12-28T23:51:39.789Z,73.03
2023-12-28T23:54:06.770Z,73.55
2023-12-28T23:56:34.396Z,73.31
2023-12-28T23:59:00.956Z,73.86
